sensor_id;sensor_type;location;lat;lon;timestamp;P1;durP1;ratioP1;P2;durP2;ratioP2
74808;SDS011;63338;39.544;2.596;2022-12-24T00:09:13;9.82;;;2.90;;
74808;SDS011;63338;39.544;2.596;2022-12-24T00:15:55;13.50;;;2.90;;
74808;SDS011;63338;39.544;2.596;2022-12-24T00:31:59;10.35;;;2.88;;
74808;SDS011;63338;39.544;2.596;2022-12-24T00:39:27;13.32;;;2.97;;
74808;SDS011;63338;39.544;2.596;2022-12-24T00:44:54;12.10;;;3.30;;
74808;SDS011;63338;39.544;2.596;2022-12-24T00:51:01;9.80;;;2.85;;
74808;SDS011;63338;39.544;2.596;2022-12-24T00:53:29;11.82;;;3.13;;
74808;SDS011;63338;39.544;2.596;2022-12-24T00:55:56;13.00;;;3.22;;
74808;SDS011;63338;39.544;2.596;2022-12-24T00:58:22;9.88;;;3.05;;
74808;SDS011;63338;39.544;2.596;2022-12-24T01:00:51;10.15;;;2.88;;
74808;SDS011;63338;39.544;2.596;2022-12-24T01:03:18;14.57;;;3.33;;
74808;SDS011;63338;39.544;2.596;2022-12-24T01:25:53;10.85;;;3.33;;
74808;SDS011;63338;39.544;2.596;2022-12-24T01:28:25;14.85;;;3.20;;
74808;SDS011;63338;39.544;2.596;2022-12-24T01:31:04;10.63;;;3.08;;
74808;SDS011;63338;39.544;2.596;2022-12-24T01:37:58;11.27;;;3.40;;
74808;SDS011;63338;39.544;2.596;2022-12-24T01:40:25;9.75;;;3.10;;
74808;SDS011;63338;39.544;2.596;2022-12-24T01:43:19;9.25;;;3.00;;
74808;SDS011;63338;39.544;2.596;2022-12-24T01:46:00;7.88;;;2.60;;
74808;SDS011;63338;39.544;2.596;2022-12-24T01:51:01;11.50;;;3.00;;
74808;SDS011;63338;39.544;2.596;2022-12-24T01:53:35;11.25;;;3.17;;
74808;SDS011;63338;39.544;2.596;2022-12-24T01:56:04;10.82;;;3.20;;
74808;SDS011;63338;39.544;2.596;2022-12-24T01:58:32;10.50;;;3.30;;
74808;SDS011;63338;39.544;2.596;2022-12-24T02:01:02;10.93;;;3.13;;
74808;SDS011;63338;39.544;2.596;2022-12-24T02:06:46;10.77;;;3.15;;
74808;SDS011;63338;39.544;2.596;2022-12-24T02:09:12;14.18;;;3.70;;
74808;SDS011;63338;39.544;2.596;2022-12-24T02:11:39;17.20;;;4.05;;
74808;SDS011;63338;39.544;2.596;2022-12-24T02:14:09;10.48;;;3.10;;
74808;SDS011;63338;39.544;2.596;2022-12-24T02:19:34;13.95;;;3.58;;
74808;SDS011;63338;39.544;2.596;2022-12-24T02:22:15;14.13;;;4.03;;
74808;SDS011;63338;39.544;2.596;2022-12-24T02:33:17;10.13;;;3.30;;
74808;SDS011;63338;39.544;2.596;2022-12-24T02:35:56;10.45;;;3.25;;
74808;SDS011;63338;39.544;2.596;2022-12-24T02:38:36;14.30;;;3.90;;
74808;SDS011;63338;39.544;2.596;2022-12-24T02:41:15;11.55;;;3.50;;
74808;SDS011;63338;39.544;2.596;2022-12-24T02:47:46;9.30;;;3.53;;
74808;SDS011;63338;39.544;2.596;2022-12-24T02:50:15;9.27;;;3.33;;
74808;SDS011;63338;39.544;2.596;2022-12-24T03:11:10;9.13;;;3.15;;
74808;SDS011;63338;39.544;2.596;2022-12-24T03:16:42;9.63;;;3.10;;
74808;SDS011;63338;39.544;2.596;2022-12-24T03:19:09;9.10;;;3.05;;
74808;SDS011;63338;39.544;2.596;2022-12-24T03:21:37;10.18;;;3.47;;
74808;SDS011;63338;39.544;2.596;2022-12-24T03:24:07;14.52;;;3.65;;
74808;SDS011;63338;39.544;2.596;2022-12-24T03:26:34;12.45;;;3.53;;
74808;SDS011;63338;39.544;2.596;2022-12-24T03:29:03;11.27;;;3.75;;
74808;SDS011;63338;39.544;2.596;2022-12-24T03:31:47;13.05;;;4.07;;
74808;SDS011;63338;39.544;2.596;2022-12-24T03:34:16;11.85;;;3.67;;
74808;SDS011;63338;39.544;2.596;2022-12-24T03:36:43;12.48;;;3.70;;
74808;SDS011;63338;39.544;2.596;2022-12-24T03:39:13;11.68;;;3.53;;
74808;SDS011;63338;39.544;2.596;2022-12-24T03:41:40;10.32;;;3.60;;
74808;SDS011;63338;39.544;2.596;2022-12-24T03:44:06;13.77;;;3.63;;
74808;SDS011;63338;39.544;2.596;2022-12-24T03:46:32;12.57;;;4.00;;
74808;SDS011;63338;39.544;2.596;2022-12-24T03:49:07;13.00;;;4.30;;
74808;SDS011;63338;39.544;2.596;2022-12-24T03:51:33;12.82;;;4.05;;
74808;SDS011;63338;39.544;2.596;2022-12-24T03:54:06;11.70;;;4.43;;
74808;SDS011;63338;39.544;2.596;2022-12-24T03:56:32;11.70;;;4.00;;
74808;SDS011;63338;39.544;2.596;2022-12-24T03:58:58;16.52;;;4.13;;
74808;SDS011;63338;39.544;2.596;2022-12-24T04:01:27;9.63;;;3.75;;
74808;SDS011;63338;39.544;2.596;2022-12-24T04:03:53;12.55;;;4.15;;
74808;SDS011;63338;39.544;2.596;2022-12-24T04:06:19;13.95;;;3.90;;
74808;SDS011;63338;39.544;2.596;2022-12-24T04:12:10;10.95;;;3.42;;
74808;SDS011;63338;39.544;2.596;2022-12-24T04:17:49;8.90;;;2.72;;
74808;SDS011;63338;39.544;2.596;2022-12-24T04:20:15;9.75;;;2.47;;
74808;SDS011;63338;39.544;2.596;2022-12-24T04:22:41;11.32;;;2.67;;
74808;SDS011;63338;39.544;2.596;2022-12-24T04:25:07;7.25;;;2.03;;
74808;SDS011;63338;39.544;2.596;2022-12-24T04:27:34;5.65;;;1.83;;
74808;SDS011;63338;39.544;2.596;2022-12-24T04:30:00;7.43;;;2.28;;
74808;SDS011;63338;39.544;2.596;2022-12-24T04:36:40;6.28;;;2.20;;
74808;SDS011;63338;39.544;2.596;2022-12-24T04:39:06;10.75;;;2.28;;
74808;SDS011;63338;39.544;2.596;2022-12-24T04:41:32;7.88;;;2.15;;
74808;SDS011;63338;39.544;2.596;2022-12-24T04:43:58;9.27;;;2.67;;
74808;SDS011;63338;39.544;2.596;2022-12-24T04:46:28;7.75;;;2.45;;
74808;SDS011;63338;39.544;2.596;2022-12-24T04:48:55;12.63;;;2.58;;
74808;SDS011;63338;39.544;2.596;2022-12-24T04:51:22;7.30;;;2.28;;
74808;SDS011;63338;39.544;2.596;2022-12-24T04:53:49;8.40;;;2.30;;
74808;SDS011;63338;39.544;2.596;2022-12-24T04:56:17;7.05;;;2.75;;
74808;SDS011;63338;39.544;2.596;2022-12-24T04:58:48;12.18;;;2.60;;
74808;SDS011;63338;39.544;2.596;2022-12-24T05:01:18;8.18;;;2.30;;
74808;SDS011;63338;39.544;2.596;2022-12-24T05:03:46;8.52;;;1.88;;
74808;SDS011;63338;39.544;2.596;2022-12-24T05:06:14;7.97;;;2.35;;
74808;SDS011;63338;39.544;2.596;2022-12-24T05:08:42;8.07;;;2.22;;
74808;SDS011;63338;39.544;2.596;2022-12-24T05:11:08;15.80;;;2.70;;
74808;SDS011;63338;39.544;2.596;2022-12-24T05:13:38;7.30;;;2.00;;
74808;SDS011;63338;39.544;2.596;2022-12-24T05:16:08;9.23;;;2.15;;
74808;SDS011;63338;39.544;2.596;2022-12-24T05:18:41;7.93;;;1.90;;
74808;SDS011;63338;39.544;2.596;2022-12-24T05:21:08;8.00;;;2.05;;
74808;SDS011;63338;39.544;2.596;2022-12-24T05:23:36;6.45;;;2.00;;
74808;SDS011;63338;39.544;2.596;2022-12-24T05:28:58;9.00;;;1.85;;
74808;SDS011;63338;39.544;2.596;2022-12-24T05:31:26;8.50;;;1.90;;
74808;SDS011;63338;39.544;2.596;2022-12-24T05:37:49;6.90;;;2.10;;
74808;SDS011;63338;39.544;2.596;2022-12-24T05:40:15;7.55;;;1.88;;
74808;SDS011;63338;39.544;2.596;2022-12-24T05:42:41;7.15;;;1.77;;
74808;SDS011;63338;39.544;2.596;2022-12-24T05:45:07;6.53;;;2.00;;
74808;SDS011;63338;39.544;2.596;2022-12-24T05:47:34;7.65;;;1.98;;
74808;SDS011;63338;39.544;2.596;2022-12-24T05:50:00;7.03;;;2.00;;
74808;SDS011;63338;39.544;2.596;2022-12-24T05:52:26;9.10;;;2.67;;
74808;SDS011;63338;39.544;2.596;2022-12-24T05:54:52;5.18;;;1.77;;
74808;SDS011;63338;39.544;2.596;2022-12-24T05:57:18;5.00;;;1.60;;
74808;SDS011;63338;39.544;2.596;2022-12-24T05:59:44;7.35;;;1.85;;
74808;SDS011;63338;39.544;2.596;2022-12-24T06:02:10;7.60;;;1.75;;
74808;SDS011;63338;39.544;2.596;2022-12-24T06:04:36;4.43;;;1.35;;
74808;SDS011;63338;39.544;2.596;2022-12-24T06:07:02;6.97;;;1.63;;
74808;SDS011;63338;39.544;2.596;2022-12-24T06:09:28;5.32;;;1.77;;
74808;SDS011;63338;39.544;2.596;2022-12-24T06:11:54;7.43;;;1.75;;
74808;SDS011;63338;39.544;2.596;2022-12-24T06:14:21;6.40;;;1.75;;
74808;SDS011;63338;39.544;2.596;2022-12-24T06:16:51;5.07;;;1.67;;
74808;SDS011;63338;39.544;2.596;2022-12-24T06:19:17;7.47;;;1.85;;
74808;SDS011;63338;39.544;2.596;2022-12-24T06:21:43;9.70;;;2.15;;
74808;SDS011;63338;39.544;2.596;2022-12-24T06:24:09;10.60;;;2.10;;
74808;SDS011;63338;39.544;2.596;2022-12-24T06:26:35;9.77;;;2.42;;
74808;SDS011;63338;39.544;2.596;2022-12-24T06:29:01;10.23;;;3.00;;
74808;SDS011;63338;39.544;2.596;2022-12-24T06:31:27;11.35;;;2.85;;
74808;SDS011;63338;39.544;2.596;2022-12-24T06:33:53;9.77;;;2.58;;
74808;SDS011;63338;39.544;2.596;2022-12-24T06:36:21;7.72;;;2.50;;
74808;SDS011;63338;39.544;2.596;2022-12-24T06:38:49;7.93;;;2.58;;
74808;SDS011;63338;39.544;2.596;2022-12-24T06:41:17;7.68;;;2.63;;
74808;SDS011;63338;39.544;2.596;2022-12-24T06:43:44;8.02;;;2.58;;
74808;SDS011;63338;39.544;2.596;2022-12-24T06:46:11;7.55;;;2.42;;
74808;SDS011;63338;39.544;2.596;2022-12-24T06:48:38;8.13;;;2.35;;
74808;SDS011;63338;39.544;2.596;2022-12-24T06:51:05;7.38;;;2.88;;
74808;SDS011;63338;39.544;2.596;2022-12-24T06:53:31;7.38;;;2.58;;
74808;SDS011;63338;39.544;2.596;2022-12-24T06:56:09;7.30;;;2.30;;
74808;SDS011;63338;39.544;2.596;2022-12-24T06:58:39;8.10;;;2.55;;
74808;SDS011;63338;39.544;2.596;2022-12-24T07:01:06;9.07;;;2.95;;
74808;SDS011;63338;39.544;2.596;2022-12-24T07:03:34;8.18;;;3.20;;
74808;SDS011;63338;39.544;2.596;2022-12-24T07:06:00;17.02;;;3.33;;
74808;SDS011;63338;39.544;2.596;2022-12-24T07:08:27;14.60;;;3.58;;
74808;SDS011;63338;39.544;2.596;2022-12-24T07:10:53;10.32;;;3.90;;
74808;SDS011;63338;39.544;2.596;2022-12-24T07:13:19;11.07;;;3.60;;
74808;SDS011;63338;39.544;2.596;2022-12-24T07:15:45;7.72;;;2.95;;
74808;SDS011;63338;39.544;2.596;2022-12-24T07:18:14;10.15;;;3.38;;
74808;SDS011;63338;39.544;2.596;2022-12-24T07:20:41;10.95;;;2.63;;
74808;SDS011;63338;39.544;2.596;2022-12-24T07:23:07;8.50;;;2.20;;
74808;SDS011;63338;39.544;2.596;2022-12-24T07:25:33;9.40;;;2.17;;
74808;SDS011;63338;39.544;2.596;2022-12-24T07:28:02;7.35;;;2.22;;
74808;SDS011;63338;39.544;2.596;2022-12-24T07:30:28;7.43;;;2.40;;
74808;SDS011;63338;39.544;2.596;2022-12-24T07:32:54;9.32;;;2.88;;
74808;SDS011;63338;39.544;2.596;2022-12-24T07:35:20;9.18;;;3.15;;
74808;SDS011;63338;39.544;2.596;2022-12-24T07:40:50;12.48;;;3.30;;
74808;SDS011;63338;39.544;2.596;2022-12-24T07:43:16;11.65;;;2.92;;
74808;SDS011;63338;39.544;2.596;2022-12-24T07:45:42;9.25;;;3.33;;
74808;SDS011;63338;39.544;2.596;2022-12-24T07:48:08;8.75;;;2.97;;
74808;SDS011;63338;39.544;2.596;2022-12-24T07:50:34;6.88;;;2.72;;
74808;SDS011;63338;39.544;2.596;2022-12-24T07:53:03;13.38;;;3.33;;
74808;SDS011;63338;39.544;2.596;2022-12-24T07:59:24;10.45;;;3.30;;
74808;SDS011;63338;39.544;2.596;2022-12-24T08:01:56;9.35;;;3.22;;
74808;SDS011;63338;39.544;2.596;2022-12-24T08:04:22;8.38;;;2.97;;
74808;SDS011;63338;39.544;2.596;2022-12-24T08:06:48;10.38;;;3.17;;
74808;SDS011;63338;39.544;2.596;2022-12-24T08:09:14;9.23;;;3.30;;
74808;SDS011;63338;39.544;2.596;2022-12-24T08:11:41;8.43;;;2.90;;
74808;SDS011;63338;39.544;2.596;2022-12-24T08:14:07;8.00;;;3.28;;
74808;SDS011;63338;39.544;2.596;2022-12-24T08:16:33;11.73;;;3.40;;
74808;SDS011;63338;39.544;2.596;2022-12-24T08:18:59;12.32;;;3.47;;
74808;SDS011;63338;39.544;2.596;2022-12-24T08:21:28;10.52;;;3.83;;
74808;SDS011;63338;39.544;2.596;2022-12-24T08:23:54;11.27;;;3.88;;
74808;SDS011;63338;39.544;2.596;2022-12-24T08:26:20;9.70;;;3.35;;
74808;SDS011;63338;39.544;2.596;2022-12-24T08:28:48;8.90;;;3.25;;
74808;SDS011;63338;39.544;2.596;2022-12-24T08:31:15;10.10;;;3.20;;
74808;SDS011;63338;39.544;2.596;2022-12-24T08:33:44;11.93;;;3.30;;
74808;SDS011;63338;39.544;2.596;2022-12-24T08:36:10;12.35;;;3.60;;
74808;SDS011;63338;39.544;2.596;2022-12-24T08:38:36;12.02;;;3.72;;
74808;SDS011;63338;39.544;2.596;2022-12-24T08:41:03;10.98;;;3.63;;
74808;SDS011;63338;39.544;2.596;2022-12-24T08:43:29;10.60;;;3.47;;
74808;SDS011;63338;39.544;2.596;2022-12-24T08:46:00;7.10;;;3.05;;
74808;SDS011;63338;39.544;2.596;2022-12-24T08:48:29;9.15;;;3.20;;
74808;SDS011;63338;39.544;2.596;2022-12-24T08:50:56;9.30;;;2.90;;
74808;SDS011;63338;39.544;2.596;2022-12-24T08:53:23;9.35;;;2.85;;
74808;SDS011;63338;39.544;2.596;2022-12-24T08:55:49;9.15;;;2.33;;
74808;SDS011;63338;39.544;2.596;2022-12-24T08:58:15;7.38;;;1.55;;
74808;SDS011;63338;39.544;2.596;2022-12-24T09:00:41;6.47;;;1.30;;
74808;SDS011;63338;39.544;2.596;2022-12-24T09:03:09;5.43;;;1.63;;
74808;SDS011;63338;39.544;2.596;2022-12-24T09:05:39;7.38;;;1.52;;
74808;SDS011;63338;39.544;2.596;2022-12-24T09:08:05;5.95;;;1.38;;
74808;SDS011;63338;39.544;2.596;2022-12-24T09:10:31;5.10;;;1.33;;
74808;SDS011;63338;39.544;2.596;2022-12-24T09:24:02;8.93;;;2.00;;
74808;SDS011;63338;39.544;2.596;2022-12-24T09:34:54;7.25;;;2.13;;
74808;SDS011;63338;39.544;2.596;2022-12-24T09:48:57;8.25;;;2.33;;
74808;SDS011;63338;39.544;2.596;2022-12-24T09:58:30;9.82;;;2.13;;
74808;SDS011;63338;39.544;2.596;2022-12-24T10:01:00;8.63;;;2.60;;
74808;SDS011;63338;39.544;2.596;2022-12-24T10:14:18;10.77;;;2.35;;
74808;SDS011;63338;39.544;2.596;2022-12-24T10:19:45;9.20;;;2.05;;
74808;SDS011;63338;39.544;2.596;2022-12-24T10:48:40;7.13;;;2.00;;
74808;SDS011;63338;39.544;2.596;2022-12-24T10:51:54;10.10;;;2.08;;
74808;SDS011;63338;39.544;2.596;2022-12-24T10:54:28;9.18;;;2.25;;
74808;SDS011;63338;39.544;2.596;2022-12-24T11:00:42;9.60;;;2.03;;
74808;SDS011;63338;39.544;2.596;2022-12-24T11:18:44;7.22;;;1.90;;
74808;SDS011;63338;39.544;2.596;2022-12-24T11:21:18;6.15;;;1.80;;
74808;SDS011;63338;39.544;2.596;2022-12-24T11:24:02;10.38;;;2.22;;
74808;SDS011;63338;39.544;2.596;2022-12-24T11:33:51;10.30;;;2.20;;
74808;SDS011;63338;39.544;2.596;2022-12-24T11:36:19;7.53;;;2.08;;
74808;SDS011;63338;39.544;2.596;2022-12-24T11:42:32;7.82;;;1.88;;
74808;SDS011;63338;39.544;2.596;2022-12-24T11:45:16;11.80;;;1.98;;
74808;SDS011;63338;39.544;2.596;2022-12-24T11:52:00;9.15;;;2.13;;
74808;SDS011;63338;39.544;2.596;2022-12-24T12:01:17;10.90;;;2.53;;
74808;SDS011;63338;39.544;2.596;2022-12-24T12:07:51;11.98;;;2.33;;
74808;SDS011;63338;39.544;2.596;2022-12-24T12:10:39;11.15;;;2.90;;
74808;SDS011;63338;39.544;2.596;2022-12-24T12:23:53;11.88;;;2.88;;
74808;SDS011;63338;39.544;2.596;2022-12-24T12:26:27;11.05;;;2.97;;
74808;SDS011;63338;39.544;2.596;2022-12-24T12:31:48;14.00;;;3.45;;
74808;SDS011;63338;39.544;2.596;2022-12-24T12:34:24;12.55;;;2.78;;
74808;SDS011;63338;39.544;2.596;2022-12-24T12:49:20;12.27;;;2.55;;
74808;SDS011;63338;39.544;2.596;2022-12-24T12:52:04;8.20;;;2.30;;
74808;SDS011;63338;39.544;2.596;2022-12-24T12:57:50;9.48;;;2.20;;
74808;SDS011;63338;39.544;2.596;2022-12-24T13:00:22;9.52;;;2.75;;
74808;SDS011;63338;39.544;2.596;2022-12-24T13:09:19;10.50;;;2.70;;
74808;SDS011;63338;39.544;2.596;2022-12-24T13:20:27;8.70;;;2.50;;
74808;SDS011;63338;39.544;2.596;2022-12-24T13:22:59;8.82;;;2.63;;
74808;SDS011;63338;39.544;2.596;2022-12-24T13:25:37;8.38;;;2.00;;
74808;SDS011;63338;39.544;2.596;2022-12-24T13:30:48;8.90;;;2.60;;
74808;SDS011;63338;39.544;2.596;2022-12-24T13:39:27;6.03;;;2.28;;
74808;SDS011;63338;39.544;2.596;2022-12-24T13:42:45;6.22;;;2.40;;
74808;SDS011;63338;39.544;2.596;2022-12-24T13:50:44;8.50;;;2.72;;
74808;SDS011;63338;39.544;2.596;2022-12-24T13:53:47;7.55;;;2.63;;
74808;SDS011;63338;39.544;2.596;2022-12-24T13:58:45;7.85;;;2.45;;
74808;SDS011;63338;39.544;2.596;2022-12-24T14:01:21;8.30;;;2.72;;
74808;SDS011;63338;39.544;2.596;2022-12-24T14:03:58;9.32;;;3.33;;
74808;SDS011;63338;39.544;2.596;2022-12-24T14:09:13;10.57;;;3.05;;
74808;SDS011;63338;39.544;2.596;2022-12-24T14:14:25;15.63;;;3.78;;
74808;SDS011;63338;39.544;2.596;2022-12-24T14:17:01;13.07;;;3.22;;
74808;SDS011;63338;39.544;2.596;2022-12-24T14:19:47;12.43;;;3.28;;
74808;SDS011;63338;39.544;2.596;2022-12-24T14:24:55;11.82;;;3.55;;
74808;SDS011;63338;39.544;2.596;2022-12-24T14:27:36;13.20;;;3.10;;
74808;SDS011;63338;39.544;2.596;2022-12-24T14:30:12;10.95;;;2.80;;
74808;SDS011;63338;39.544;2.596;2022-12-24T14:32:48;15.07;;;3.83;;
74808;SDS011;63338;39.544;2.596;2022-12-24T14:35:19;12.85;;;3.38;;
74808;SDS011;63338;39.544;2.596;2022-12-24T14:40:27;16.77;;;3.53;;
74808;SDS011;63338;39.544;2.596;2022-12-24T14:56:24;17.42;;;4.13;;
74808;SDS011;63338;39.544;2.596;2022-12-24T14:58:50;16.52;;;3.90;;
74808;SDS011;63338;39.544;2.596;2022-12-24T15:01:18;15.45;;;4.18;;
74808;SDS011;63338;39.544;2.596;2022-12-24T15:06:45;11.25;;;4.20;;
74808;SDS011;63338;39.544;2.596;2022-12-24T15:09:18;19.25;;;4.85;;
74808;SDS011;63338;39.544;2.596;2022-12-24T15:11:45;19.75;;;8.40;;
74808;SDS011;63338;39.544;2.596;2022-12-24T15:14:13;15.25;;;4.25;;
74808;SDS011;63338;39.544;2.596;2022-12-24T15:16:40;17.48;;;5.07;;
74808;SDS011;63338;39.544;2.596;2022-12-24T15:19:14;18.60;;;6.90;;
74808;SDS011;63338;39.544;2.596;2022-12-24T15:24:27;13.40;;;4.43;;
74808;SDS011;63338;39.544;2.596;2022-12-24T15:26:58;11.35;;;4.55;;
74808;SDS011;63338;39.544;2.596;2022-12-24T15:29:38;17.30;;;4.32;;
74808;SDS011;63338;39.544;2.596;2022-12-24T15:32:10;14.77;;;4.25;;
74808;SDS011;63338;39.544;2.596;2022-12-24T15:34:40;15.73;;;4.43;;
74808;SDS011;63338;39.544;2.596;2022-12-24T15:37:17;16.75;;;4.38;;
74808;SDS011;63338;39.544;2.596;2022-12-24T15:39:55;17.55;;;4.70;;
74808;SDS011;63338;39.544;2.596;2022-12-24T15:42:33;16.38;;;4.55;;
74808;SDS011;63338;39.544;2.596;2022-12-24T15:50:21;15.75;;;4.68;;
74808;SDS011;63338;39.544;2.596;2022-12-24T15:56:28;19.35;;;4.35;;
74808;SDS011;63338;39.544;2.596;2022-12-24T16:01:44;15.38;;;4.30;;
74808;SDS011;63338;39.544;2.596;2022-12-24T16:04:12;9.77;;;4.45;;
74808;SDS011;63338;39.544;2.596;2022-12-24T16:06:50;11.85;;;3.92;;
74808;SDS011;63338;39.544;2.596;2022-12-24T16:12:02;14.73;;;4.93;;
74808;SDS011;63338;39.544;2.596;2022-12-24T16:14:28;14.57;;;4.13;;
74808;SDS011;63338;39.544;2.596;2022-12-24T16:16:56;17.55;;;4.68;;
74808;SDS011;63338;39.544;2.596;2022-12-24T16:19:24;17.85;;;4.95;;
74808;SDS011;63338;39.544;2.596;2022-12-24T16:25:29;14.45;;;5.22;;
74808;SDS011;63338;39.544;2.596;2022-12-24T16:30:43;18.85;;;6.15;;
74808;SDS011;63338;39.544;2.596;2022-12-24T16:33:11;17.98;;;5.70;;
74808;SDS011;63338;39.544;2.596;2022-12-24T16:35:44;18.25;;;5.40;;
74808;SDS011;63338;39.544;2.596;2022-12-24T16:38:14;21.35;;;5.90;;
74808;SDS011;63338;39.544;2.596;2022-12-24T16:44:36;19.80;;;6.95;;
74808;SDS011;63338;39.544;2.596;2022-12-24T16:47:03;22.10;;;6.13;;
74808;SDS011;63338;39.544;2.596;2022-12-24T16:49:37;20.05;;;6.60;;
74808;SDS011;63338;39.544;2.596;2022-12-24T16:52:04;20.70;;;6.95;;
74808;SDS011;63338;39.544;2.596;2022-12-24T16:54:34;23.17;;;6.45;;
74808;SDS011;63338;39.544;2.596;2022-12-24T16:57:03;17.45;;;6.22;;
74808;SDS011;63338;39.544;2.596;2022-12-24T16:59:48;19.83;;;6.05;;
74808;SDS011;63338;39.544;2.596;2022-12-24T17:02:15;16.50;;;5.95;;
74808;SDS011;63338;39.544;2.596;2022-12-24T17:04:43;20.00;;;5.68;;
74808;SDS011;63338;39.544;2.596;2022-12-24T17:07:10;15.25;;;5.78;;
74808;SDS011;63338;39.544;2.596;2022-12-24T17:09:38;15.70;;;6.05;;
74808;SDS011;63338;39.544;2.596;2022-12-24T17:12:08;19.23;;;6.47;;
74808;SDS011;63338;39.544;2.596;2022-12-24T17:14:34;28.90;;;9.27;;
74808;SDS011;63338;39.544;2.596;2022-12-24T17:17:02;21.85;;;8.95;;
74808;SDS011;63338;39.544;2.596;2022-12-24T17:19:29;17.33;;;6.60;;
74808;SDS011;63338;39.544;2.596;2022-12-24T17:21:55;19.08;;;6.95;;
74808;SDS011;63338;39.544;2.596;2022-12-24T17:24:21;15.93;;;5.63;;
74808;SDS011;63338;39.544;2.596;2022-12-24T17:26:47;18.90;;;6.70;;
74808;SDS011;63338;39.544;2.596;2022-12-24T17:29:13;18.80;;;6.90;;
74808;SDS011;63338;39.544;2.596;2022-12-24T17:31:39;18.67;;;7.00;;
74808;SDS011;63338;39.544;2.596;2022-12-24T17:38:01;18.75;;;7.88;;
74808;SDS011;63338;39.544;2.596;2022-12-24T17:40:27;18.40;;;6.60;;
74808;SDS011;63338;39.544;2.596;2022-12-24T17:42:54;21.67;;;7.18;;
74808;SDS011;63338;39.544;2.596;2022-12-24T17:45:20;16.17;;;7.40;;
74808;SDS011;63338;39.544;2.596;2022-12-24T17:47:46;20.77;;;7.55;;
74808;SDS011;63338;39.544;2.596;2022-12-24T17:50:12;18.95;;;7.50;;
74808;SDS011;63338;39.544;2.596;2022-12-24T17:52:38;22.23;;;8.85;;
74808;SDS011;63338;39.544;2.596;2022-12-24T17:55:04;18.25;;;6.95;;
74808;SDS011;63338;39.544;2.596;2022-12-24T17:57:30;17.98;;;8.40;;
74808;SDS011;63338;39.544;2.596;2022-12-24T17:59:56;19.75;;;7.40;;
74808;SDS011;63338;39.544;2.596;2022-12-24T18:02:22;17.40;;;7.45;;
74808;SDS011;63338;39.544;2.596;2022-12-24T18:04:48;20.17;;;7.35;;
74808;SDS011;63338;39.544;2.596;2022-12-24T18:07:14;18.95;;;7.30;;
74808;SDS011;63338;39.544;2.596;2022-12-24T18:09:42;18.00;;;6.95;;
74808;SDS011;63338;39.544;2.596;2022-12-24T18:20:17;20.13;;;6.28;;
74808;SDS011;63338;39.544;2.596;2022-12-24T18:22:50;21.38;;;7.07;;
74808;SDS011;63338;39.544;2.596;2022-12-24T18:25:16;16.23;;;6.40;;
74808;SDS011;63338;39.544;2.596;2022-12-24T18:27:42;18.98;;;6.45;;
74808;SDS011;63338;39.544;2.596;2022-12-24T18:30:08;16.75;;;6.45;;
74808;SDS011;63338;39.544;2.596;2022-12-24T18:32:35;19.63;;;7.28;;
74808;SDS011;63338;39.544;2.596;2022-12-24T18:35:01;16.23;;;6.53;;
74808;SDS011;63338;39.544;2.596;2022-12-24T18:37:31;18.00;;;6.85;;
74808;SDS011;63338;39.544;2.596;2022-12-24T18:39:57;16.25;;;6.35;;
74808;SDS011;63338;39.544;2.596;2022-12-24T18:42:23;18.65;;;6.75;;
74808;SDS011;63338;39.544;2.596;2022-12-24T18:44:50;19.75;;;6.93;;
74808;SDS011;63338;39.544;2.596;2022-12-24T18:47:16;21.70;;;7.32;;
74808;SDS011;63338;39.544;2.596;2022-12-24T18:49:45;19.17;;;6.70;;
74808;SDS011;63338;39.544;2.596;2022-12-24T18:52:11;17.60;;;7.43;;
74808;SDS011;63338;39.544;2.596;2022-12-24T18:54:37;21.20;;;8.05;;
74808;SDS011;63338;39.544;2.596;2022-12-24T18:57:04;16.73;;;6.80;;
74808;SDS011;63338;39.544;2.596;2022-12-24T18:59:36;15.43;;;6.28;;
74808;SDS011;63338;39.544;2.596;2022-12-24T19:02:03;12.23;;;5.80;;
74808;SDS011;63338;39.544;2.596;2022-12-24T19:04:30;16.33;;;5.68;;
74808;SDS011;63338;39.544;2.596;2022-12-24T19:07:13;17.63;;;5.95;;
74808;SDS011;63338;39.544;2.596;2022-12-24T19:09:57;13.27;;;5.32;;
74808;SDS011;63338;39.544;2.596;2022-12-24T19:12:23;17.88;;;7.90;;
74808;SDS011;63338;39.544;2.596;2022-12-24T19:14:49;17.77;;;6.90;;
74808;SDS011;63338;39.544;2.596;2022-12-24T19:17:15;19.90;;;6.85;;
74808;SDS011;63338;39.544;2.596;2022-12-24T19:19:41;15.32;;;6.60;;
74808;SDS011;63338;39.544;2.596;2022-12-24T19:22:07;15.35;;;7.13;;
74808;SDS011;63338;39.544;2.596;2022-12-24T19:24:36;16.77;;;6.75;;
74808;SDS011;63338;39.544;2.596;2022-12-24T19:27:05;14.07;;;6.85;;
74808;SDS011;63338;39.544;2.596;2022-12-24T19:29:31;14.63;;;6.13;;
74808;SDS011;63338;39.544;2.596;2022-12-24T19:32:21;13.50;;;5.57;;
74808;SDS011;63338;39.544;2.596;2022-12-24T19:34:52;13.93;;;5.50;;
74808;SDS011;63338;39.544;2.596;2022-12-24T19:37:24;15.57;;;6.43;;
74808;SDS011;63338;39.544;2.596;2022-12-24T19:39:54;11.82;;;4.88;;
74808;SDS011;63338;39.544;2.596;2022-12-24T19:49:06;14.90;;;5.00;;
74808;SDS011;63338;39.544;2.596;2022-12-24T19:51:43;13.27;;;4.57;;
74808;SDS011;63338;39.544;2.596;2022-12-24T19:54:09;13.02;;;5.18;;
74808;SDS011;63338;39.544;2.596;2022-12-24T19:56:44;11.70;;;4.80;;
74808;SDS011;63338;39.544;2.596;2022-12-24T19:59:10;11.57;;;4.90;;
74808;SDS011;63338;39.544;2.596;2022-12-24T20:01:36;10.82;;;5.07;;
74808;SDS011;63338;39.544;2.596;2022-12-24T20:04:06;11.18;;;4.93;;
74808;SDS011;63338;39.544;2.596;2022-12-24T20:06:34;13.98;;;4.80;;
74808;SDS011;63338;39.544;2.596;2022-12-24T20:09:05;15.32;;;5.57;;
74808;SDS011;63338;39.544;2.596;2022-12-24T20:11:32;10.52;;;4.80;;
74808;SDS011;63338;39.544;2.596;2022-12-24T20:14:16;11.98;;;4.72;;
74808;SDS011;63338;39.544;2.596;2022-12-24T20:16:45;10.10;;;5.20;;
74808;SDS011;63338;39.544;2.596;2022-12-24T20:19:17;15.73;;;6.20;;
74808;SDS011;63338;39.544;2.596;2022-12-24T20:21:46;13.98;;;6.07;;
74808;SDS011;63338;39.544;2.596;2022-12-24T20:24:15;10.30;;;4.78;;
74808;SDS011;63338;39.544;2.596;2022-12-24T20:26:41;12.93;;;5.22;;
74808;SDS011;63338;39.544;2.596;2022-12-24T20:29:08;10.45;;;4.80;;
74808;SDS011;63338;39.544;2.596;2022-12-24T20:31:36;13.25;;;5.32;;
74808;SDS011;63338;39.544;2.596;2022-12-24T20:34:03;10.80;;;5.35;;
74808;SDS011;63338;39.544;2.596;2022-12-24T20:36:31;10.07;;;5.07;;
74808;SDS011;63338;39.544;2.596;2022-12-24T20:39:02;12.38;;;5.43;;
74808;SDS011;63338;39.544;2.596;2022-12-24T20:41:34;13.05;;;5.03;;
74808;SDS011;63338;39.544;2.596;2022-12-24T20:44:03;9.98;;;5.15;;
74808;SDS011;63338;39.544;2.596;2022-12-24T20:46:37;13.30;;;5.13;;
74808;SDS011;63338;39.544;2.596;2022-12-24T20:49:03;11.98;;;5.80;;
74808;SDS011;63338;39.544;2.596;2022-12-24T20:51:30;17.20;;;5.28;;
74808;SDS011;63338;39.544;2.596;2022-12-24T20:53:57;9.65;;;5.20;;
74808;SDS011;63338;39.544;2.596;2022-12-24T20:56:26;10.52;;;4.43;;
74808;SDS011;63338;39.544;2.596;2022-12-24T20:58:57;10.00;;;4.53;;
74808;SDS011;63338;39.544;2.596;2022-12-24T21:01:24;12.85;;;5.57;;
74808;SDS011;63338;39.544;2.596;2022-12-24T21:03:57;12.23;;;4.90;;
74808;SDS011;63338;39.544;2.596;2022-12-24T21:06:29;12.50;;;5.63;;
74808;SDS011;63338;39.544;2.596;2022-12-24T21:08:58;13.02;;;5.32;;
74808;SDS011;63338;39.544;2.596;2022-12-24T21:11:28;13.15;;;5.70;;
74808;SDS011;63338;39.544;2.596;2022-12-24T21:14:13;11.65;;;5.60;;
74808;SDS011;63338;39.544;2.596;2022-12-24T21:16:50;9.05;;;4.88;;
74808;SDS011;63338;39.544;2.596;2022-12-24T21:19:19;12.73;;;5.43;;